Time;durP1;ratioP1;P1;durP2;ratioP2;P2;SDS_P1;SDS_P2;PMS_P1;PMS_P2;Temp;Humidity;BMP_temperature;BMP_pressure;BME280_temperature;BME280_humidity;BME280_pressure;Samples;Min_cycle;Max_cycle;Signal;HPM_P1;HPM_P2
2022/11/27 00:02:24;;;;;;;23.50;8.00;;;5.30;99.90;;;;;;6187349;23;20017;-87
2022/11/27 00:04:58;;;;;;;19.10;7.67;;;6.90;99.90;;;;;;6187990;23;20008;-87
2022/11/27 00:07:39;;;;;;;25.60;8.07;;;6.00;99.90;;;;;;6190035;23;20453;-87
2022/11/27 00:11:10;;;;;;;18.97;7.60;;;5.70;99.90;;;;;;6206540;23;20027;-87
2022/11/27 00:14:25;;;;;;;21.53;8.43;;;4.20;99.90;;;;;;6246718;23;20035;-87
2022/11/27 00:16:51;;;;;;;21.37;7.97;;;6.30;99.90;;;;;;6218249;23;20013;-87
2022/11/27 00:19:31;;;;;;;20.73;8.17;;;4.20;99.90;;;;;;6246584;23;20482;-87
2022/11/27 00:22:06;;;;;;;22.90;8.00;;;5.10;99.90;;;;;;6220209;23;20384;-87
2022/11/27 00:24:49;;;;;;;22.83;8.27;;;5.80;99.90;;;;;;6245586;23;20044;-87
2022/11/27 00:27:23;;;;;;;18.55;8.18;;;5.70;99.90;;;;;;6246991;23;20071;-87
2022/11/27 00:29:54;;;;;;;19.88;8.45;;;5.80;99.90;;;;;;6219171;23;20016;-87
2022/11/27 00:32:32;;;;;;;21.67;8.23;;;5.00;99.90;;;;;;6219793;23;20095;-87
2022/11/27 00:35:07;;;;;;;26.70;8.50;;;4.80;99.90;;;;;;6247048;23;20047;-87
2022/11/27 00:37:45;;;;;;;24.13;8.50;;;4.90;99.90;;;;;;6223275;23;20462;-87
2022/11/27 00:40:17;;;;;;;20.20;7.90;;;6.30;99.90;;;;;;6220060;23;20016;-87
2022/11/27 00:43:00;;;;;;;20.70;8.47;;;5.00;99.90;;;;;;6223784;22;20013;-87
2022/11/27 00:45:41;;;;;;;19.37;8.47;;;4.70;99.90;;;;;;6193628;23;20374;-87
2022/11/27 00:48:13;;;;;;;22.40;8.50;;;6.10;99.90;;;;;;6189619;23;20016;-87
2022/11/27 00:51:01;;;;;;;21.63;8.40;;;4.30;99.90;;;;;;6188047;23;20019;-87
2022/11/27 00:53:36;;;;;;;20.43;7.97;;;5.00;99.90;;;;;;6189459;23;20017;-87
2022/11/27 00:56:21;;;;;;;30.23;9.87;;;4.70;99.90;;;;;;6216388;23;20070;-88
2022/11/27 00:58:56;;;;;;;22.07;8.60;;;3.70;99.90;;;;;;6222874;23;20012;-87
2022/11/27 01:01:36;;;;;;;22.17;9.20;;;4.70;99.90;;;;;;6193539;23;20016;-87
2022/11/27 01:04:12;;;;;;;19.23;8.50;;;4.50;99.90;;;;;;6216392;23;20013;-87
2022/11/27 01:06:46;;;;;;;17.80;7.93;;;4.70;99.90;;;;;;6193926;23;20070;-87
2022/11/27 01:09:23;;;;;;;18.33;8.50;;;5.70;99.90;;;;;;6190407;23;20024;-87
2022/11/27 01:11:57;;;;;;;24.43;8.60;;;3.70;99.90;;;;;;6189059;23;20059;-87
2022/11/27 01:14:26;;;;;;;24.37;8.43;;;4.20;99.90;;;;;;6189533;23;20048;-87
2022/11/27 01:16:51;;;;;;;22.43;8.83;;;6.80;99.90;;;;;;6216171;23;20095;-87
2022/11/27 01:19:18;;;;;;;24.33;9.63;;;4.30;99.90;;;;;;6189113;23;20040;-87
2022/11/27 01:22:02;;;;;;;20.40;7.83;;;5.40;99.90;;;;;;6216747;23;20032;-87
2022/11/27 01:24:35;;;;;;;22.55;8.00;;;3.90;99.90;;;;;;6189683;23;20013;-87
2022/11/27 01:27:16;;;;;;;;;;;3.70;99.90;;;;;;6216101;23;20013;-87
2022/11/27 01:29:50;;;;;;;20.73;8.60;;;4.50;99.90;;;;;;6215708;23;20005;-87
2022/11/27 01:32:18;;;;;;;19.47;8.50;;;5.50;99.90;;;;;;6189083;23;20016;-87
2022/11/27 01:34:44;;;;;;;21.73;8.90;;;4.30;99.90;;;;;;6214656;23;20017;-87
2022/11/27 01:37:10;;;;;;;21.43;8.30;;;5.50;99.90;;;;;;6189988;23;20024;-87
2022/11/27 01:39:35;;;;;;;24.20;8.67;;;4.40;99.90;;;;;;6214288;23;20023;-86
2022/11/27 01:42:01;;;;;;;24.83;9.03;;;4.10;99.90;;;;;;6211294;23;20472;-87
2022/11/27 01:45:05;;;;;;;21.40;8.47;;;3.90;99.90;;;;;;6215046;23;20020;-87
2022/11/27 01:50:40;;;;;;;21.97;8.73;;;5.30;99.90;;;;;;6218442;23;20069;-87
2022/11/27 01:56:43;;;;;;;22.00;7.93;;;4.20;99.90;;;;;;6070116;23;20022;-87
2022/11/27 01:59:45;;;;;;;20.63;8.53;;;5.10;99.90;;;;;;6155580;23;20366;-87
2022/11/27 02:02:23;;;;;;;21.07;8.13;;;4.30;99.90;;;;;;6217955;23;20059;-87
2022/11/27 02:04:48;;;;;;;19.37;8.17;;;3.50;99.90;;;;;;6218800;23;20066;-87
2022/11/27 02:07:14;;;;;;;22.50;8.17;;;5.00;99.90;;;;;;6246210;23;20008;-87
2022/11/27 02:09:40;;;;;;;24.70;8.67;;;4.20;99.90;;;;;;6244823;23;20012;-87
2022/11/27 02:12:57;;;;;;;25.80;8.13;;;4.20;99.90;;;;;;6218495;23;20027;-87
2022/11/27 02:16:09;;;;;;;24.40;8.67;;;3.70;99.90;;;;;;6238302;23;20345;-87
2022/11/27 02:22:56;;;;;;;20.97;7.93;;;4.10;99.90;;;;;;6213870;23;20055;-88
2022/11/27 02:25:33;;;;;;;17.63;7.80;;;3.80;99.90;;;;;;6188984;23;20025;-87
2022/11/27 02:29:00;;;;;;;20.70;7.77;;;4.00;99.90;;;;;;6167505;23;20129;-87
2022/11/27 02:32:02;;;;;;;19.93;7.60;;;3.90;99.90;;;;;;6163763;23;20016;-86
2022/11/27 02:34:57;;;;;;;20.20;7.30;;;3.70;99.90;;;;;;6223150;23;20021;-87
2022/11/27 02:37:55;;;;;;;19.60;7.17;;;4.00;99.90;;;;;;6216300;23;20013;-87
2022/11/27 02:40:58;;;;;;;20.93;7.60;;;4.00;99.90;;;;;;6215177;23;20012;-87
2022/11/27 02:43:33;;;;;;;17.83;7.17;;;4.00;99.90;;;;;;6193300;23;20020;-87
2022/11/27 02:46:18;;;;;;;20.20;7.97;;;3.80;99.90;;;;;;6189500;23;20052;-87
2022/11/27 02:48:47;;;;;;;22.20;7.70;;;3.90;99.90;;;;;;6187406;23;20019;-87
2022/11/27 02:51:39;;;;;;;;;;;;;;;;;;;;;
2022/11/27 02:54:49;;;;;;;24.03;7.60;;;3.90;99.90;;;;;;6140273;23;20013;-87
2022/11/27 02:57:20;;;;;;;21.27;7.77;;;3.90;99.90;;;;;;6209911;23;20026;-87
2022/11/27 02:59:50;;;;;;;17.67;7.73;;;4.70;99.90;;;;;;6215204;23;20092;-87
2022/11/27 03:02:30;;;;;;;23.10;8.00;;;3.90;99.90;;;;;;6188364;23;20024;-87
2022/11/27 03:05:01;;;;;;;16.27;7.27;;;3.80;99.90;;;;;;6187748;23;20377;-87
2022/11/27 03:08:01;;;;;;;19.03;7.60;;;3.80;99.90;;;;;;6214989;23;20511;-87
2022/11/27 03:10:47;;;;;;;15.27;6.97;;;3.60;99.90;;;;;;6188255;23;20013;-87
2022/11/27 03:13:23;;;;;;;;;;;;;;;;;;;;;
2022/11/27 03:16:39;;;;;;;20.07;7.47;;;5.10;99.90;;;;;;6123303;23;20033;-87
2022/11/27 03:19:32;;;;;;;21.37;7.20;;;5.10;99.90;;;;;;6097162;23;20026;-87
2022/11/27 03:22:07;;;;;;;17.17;6.90;;;4.00;99.90;;;;;;6123800;23;20025;-87
2022/11/27 03:24:44;;;;;;;16.97;6.60;;;4.20;99.90;;;;;;6123022;23;20026;-88
2022/11/27 03:28:02;;;;;;;16.63;6.43;;;5.40;99.90;;;;;;6122573;23;20021;-87
2022/11/27 03:30:48;;;;;;;19.93;6.83;;;3.90;99.90;;;;;;6090147;23;20017;-87
2022/11/27 03:33:23;;;;;;;16.03;6.17;;;4.00;99.90;;;;;;6187812;23;20013;-87
2022/11/27 03:35:55;;;;;;;15.83;6.80;;;4.20;99.90;;;;;;6214765;23;20059;-87
2022/11/27 03:38:30;;;;;;;18.10;6.37;;;4.10;99.90;;;;;;6215127;23;20096;-87
2022/11/27 03:41:17;;;;;;;18.57;6.73;;;4.80;99.90;;;;;;6188127;23;20028;-87
2022/11/27 03:44:20;;;;;;;19.00;6.30;;;4.00;99.90;;;;;;6189216;23;20100;-87
2022/11/27 03:47:35;;;;;;;19.57;6.43;;;4.80;99.90;;;;;;6189253;23;20419;-87
2022/11/27 03:50:22;;;;;;;20.88;6.18;;;4.20;99.90;;;;;;6190344;23;20100;-87
2022/11/27 03:53:29;;;;;;;16.93;5.90;;;4.00;99.90;;;;;;6189866;23;20024;-87
2022/11/27 03:56:29;;;;;;;19.93;6.00;;;4.40;99.90;;;;;;6217131;23;20028;-87
2022/11/27 03:59:54;;;;;;;18.70;6.47;;;4.30;99.90;;;;;;6190388;23;20017;-87
2022/11/27 04:02:46;;;;;;;18.33;6.38;;;4.20;99.90;;;;;;6123989;23;20450;-87
2022/11/27 04:05:18;;;;;;;19.00;5.50;;;3.40;99.90;;;;;;6100437;23;20100;-87
2022/11/27 04:07:56;;;;;;;17.13;6.33;;;4.00;99.90;;;;;;6163444;23;20016;-87
2022/11/27 04:10:22;;;;;;;16.57;6.30;;;4.20;99.90;;;;;;6199367;23;20084;-87
2022/11/27 04:12:48;;;;;;;20.23;5.83;;;5.10;99.90;;;;;;6194695;23;20013;-87
2022/11/27 04:15:14;;;;;;;19.37;5.37;;;3.60;99.90;;;;;;6190177;23;20017;-87
2022/11/27 04:17:57;;;;;;;19.30;5.90;;;4.80;99.90;;;;;;6216611;23;20016;-87
2022/11/27 04:20:31;;;;;;;16.33;5.63;;;3.70;99.90;;;;;;6228558;23;20507;-87
2022/11/27 04:23:44;;;;;;;15.73;5.43;;;4.20;99.90;;;;;;6190309;23;20028;-87
2022/11/27 04:26:19;;;;;;;19.20;6.00;;;4.30;99.90;;;;;;6099281;23;20022;-86
2022/11/27 04:28:49;;;;;;;16.30;5.87;;;4.90;99.90;;;;;;6098812;23;20104;-87
2022/11/27 04:32:00;;;;;;;17.17;5.73;;;4.50;99.90;;;;;;6186054;23;20020;-86
2022/11/27 04:34:35;;;;;;;16.70;5.57;;;3.60;99.90;;;;;;6216882;23;20036;-87
2022/11/27 04:37:44;;;;;;;16.17;5.83;;;3.70;99.90;;;;;;6189357;23;20405;-87
2022/11/27 04:40:19;;;;;;;18.90;5.40;;;3.90;99.90;;;;;;6104369;23;20037;-87
2022/11/27 04:42:59;;;;;;;17.53;5.20;;;4.70;99.90;;;;;;6215346;23;20028;-87
2022/11/27 04:45:42;;;;;;;;;;;;;;;;;;;;;
2022/11/27 04:48:27;;;;;;;17.87;5.97;;;5.10;99.90;;;;;;6121490;23;20021;-87
2022/11/27 04:50:54;;;;;;;13.50;5.40;;;4.50;99.90;;;;;;6214904;23;20016;-87
2022/11/27 04:53:20;;;;;;;14.23;5.03;;;3.90;99.90;;;;;;6216098;23;20017;-87
2022/11/27 04:55:49;;;;;;;14.17;5.50;;;4.50;99.90;;;;;;6217026;23;20012;-87
2022/11/27 04:58:17;;;;;;;16.07;5.40;;;5.50;99.90;;;;;;6218020;23;20123;-87
2022/11/27 05:00:49;;;;;;;18.50;5.30;;;5.90;99.90;;;;;;6218261;23;20021;-87
2022/11/27 05:03:20;;;;;;;16.63;5.43;;;4.20;99.90;;;;;;6189636;23;20381;-87
2022/11/27 05:06:21;;;;;;;18.00;5.60;;;4.60;99.90;;;;;;6214392;23;20084;-87
2022/11/27 05:09:00;;;;;;;13.00;5.10;;;3.70;99.90;;;;;;6215726;23;20017;-87
2022/11/27 05:11:27;;;;;;;13.93;5.60;;;4.30;99.90;;;;;;6215445;23;20067;-87
2022/11/27 05:14:13;;;;;;;16.90;5.90;;;5.70;99.90;;;;;;6189135;23;20020;-87
2022/11/27 05:19:33;;;;;;;15.30;5.57;;;4.00;99.90;;;;;;6183814;23;20025;-87
2022/11/27 05:21:59;;;;;;;17.57;5.50;;;5.10;99.90;;;;;;6177119;23;20021;-87
2022/11/27 05:24:33;;;;;;;16.53;5.13;;;4.20;99.90;;;;;;6184828;23;20125;-87
2022/11/27 05:27:13;;;;;;;14.03;5.50;;;5.60;99.90;;;;;;6185829;23;20017;-87
2022/11/27 05:29:45;;;;;;;19.00;5.77;;;4.40;99.90;;;;;;6172700;23;20079;-87
2022/11/27 05:32:20;;;;;;;16.33;6.03;;;4.10;99.90;;;;;;6185332;23;20013;-87
2022/11/27 05:34:57;;;;;;;15.10;5.37;;;3.90;99.90;;;;;;6177001;23;20092;-87
2022/11/27 05:37:23;;;;;;;13.87;5.83;;;4.70;99.90;;;;;;6189327;23;20009;-87
2022/11/27 05:42:22;;;;;;;16.67;5.50;;;3.90;99.90;;;;;;6244918;23;20077;-87
2022/11/27 05:44:50;;;;;;;15.83;5.67;;;3.80;99.90;;;;;;6247474;23;20436;-87
2022/11/27 05:48:06;;;;;;;16.67;5.37;;;3.80;99.90;;;;;;6243222;22;20067;-87
2022/11/27 05:51:22;;;;;;;14.30;5.57;;;3.10;99.90;;;;;;6132331;23;20021;-88
2022/11/27 05:53:51;;;;;;;18.87;5.90;;;4.10;99.90;;;;;;6129833;23;20050;-87
2022/11/27 05:56:23;;;;;;;18.10;5.83;;;4.90;99.90;;;;;;6161721;23;20021;-87
2022/11/27 06:02:25;;;;;;;14.95;5.78;;;3.30;99.90;;;;;;6132483;23;20100;-87
2022/11/27 06:05:12;;;;;;;17.57;5.97;;;4.70;99.90;;;;;;6176169;23;20016;-85
2022/11/27 06:07:50;;;;;;;17.03;5.70;;;3.20;99.90;;;;;;6221534;23;20460;-85
2022/11/27 06:10:28;;;;;;;16.37;5.73;;;4.30;99.90;;;;;;6217941;23;20027;-86
2022/11/27 06:12:56;;;;;;;14.93;5.60;;;4.00;99.90;;;;;;6190040;23;20016;-86
2022/11/27 06:15:36;;;;;;;14.50;5.43;;;4.00;99.90;;;;;;6215719;23;20091;-86
2022/11/27 06:18:11;;;;;;;13.43;6.03;;;5.00;99.90;;;;;;6217883;23;20024;-86
2022/11/27 06:20:46;;;;;;;14.33;5.57;;;3.50;99.90;;;;;;6217429;23;20016;-86
2022/11/27 06:23:21;;;;;;;14.93;5.77;;;3.60;99.90;;;;;;6190646;23;20016;-85
2022/11/27 06:25:50;;;;;;;14.33;5.73;;;3.80;99.90;;;;;;6190220;23;20048;-86
2022/11/27 06:28:19;;;;;;;16.83;5.93;;;3.60;99.90;;;;;;6190821;23;20016;-86
2022/11/27 06:30:53;;;;;;;13.50;5.90;;;4.70;99.90;;;;;;6191834;23;20025;-85
2022/11/27 06:33:19;;;;;;;13.00;5.47;;;3.90;99.90;;;;;;6191645;23;20067;-86
2022/11/27 06:35:54;;;;;;;13.77;5.10;;;4.10;99.90;;;;;;6217179;23;20017;-85
2022/11/27 06:38:42;;;;;;;13.60;5.23;;;5.10;99.90;;;;;;6192262;23;20564;-86
2022/11/27 06:41:21;;;;;;;14.73;5.57;;;3.60;99.90;;;;;;6157625;23;20031;-86
2022/11/27 06:44:00;;;;;;;15.90;5.63;;;3.80;99.90;;;;;;6190585;23;20047;-86
2022/11/27 06:46:42;;;;;;;13.57;6.00;;;3.90;99.90;;;;;;6193526;23;20020;-86
2022/11/27 06:52:04;;;;;;;16.10;5.80;;;5.80;99.90;;;;;;6219055;23;20571;-84
2022/11/27 06:54:30;;;;;;;15.70;5.67;;;5.80;99.90;;;;;;6190134;23;20027;-85
2022/11/27 06:57:10;;;;;;;11.00;5.13;;;3.60;99.90;;;;;;6217081;23;20048;-83
2022/11/27 06:59:41;;;;;;;17.20;6.10;;;3.40;99.90;;;;;;6216042;23;20440;-83
2022/11/27 07:02:27;;;;;;;13.67;5.80;;;4.80;99.90;;;;;;6188579;23;20083;-84
2022/11/27 07:05:05;;;;;;;14.10;5.50;;;3.80;99.90;;;;;;6168003;23;20016;-85
2022/11/27 07:07:48;;;;;;;15.60;5.47;;;3.80;99.90;;;;;;6215298;23;20020;-85
2022/11/27 07:10:26;;;;;;;13.37;5.50;;;3.70;99.90;;;;;;6188084;23;20020;-85
2022/11/27 07:13:07;;;;;;;14.80;5.80;;;4.10;99.90;;;;;;6188358;23;20055;-85
2022/11/27 07:15:42;;;;;;;14.20;5.47;;;3.90;99.90;;;;;;6188081;23;20019;-85
2022/11/27 07:18:19;;;;;;;15.70;5.93;;;4.10;99.90;;;;;;6187685;23;20055;-85
2022/11/27 07:21:00;;;;;;;13.03;5.60;;;4.60;99.90;;;;;;6188103;23;20123;-85
2022/11/27 07:24:08;;;;;;;13.47;5.60;;;5.10;99.90;;;;;;6188170;23;20028;-85
2022/11/27 07:26:34;;;;;;;14.50;5.60;;;3.60;99.90;;;;;;6192718;23;20012;-85
2022/11/27 07:29:09;;;;;;;14.17;5.90;;;4.60;99.90;;;;;;6189409;23;20456;-83
2022/11/27 07:31:52;;;;;;;15.03;5.67;;;4.00;99.90;;;;;;6188729;23;20025;-84
2022/11/27 07:34:40;;;;;;;16.15;5.75;;;5.00;99.90;;;;;;6193820;23;20032;-83
2022/11/27 07:37:31;;;;;;;13.47;5.30;;;4.30;99.90;;;;;;6188725;23;20020;-84
2022/11/27 07:40:12;;;;;;;12.90;5.50;;;5.40;99.90;;;;;;6187926;23;20013;-84
2022/11/27 07:42:38;;;;;;;16.70;6.30;;;4.00;99.90;;;;;;6187653;23;20095;-83
2022/11/27 07:45:06;;;;;;;15.20;6.00;;;4.60;99.90;;;;;;6217212;23;20044;-84
2022/11/27 07:47:47;;;;;;;14.07;6.10;;;3.90;99.90;;;;;;6192517;23;20017;-84
2022/11/27 07:50:24;;;;;;;13.73;5.97;;;4.20;99.90;;;;;;6190490;23;20040;-81
2022/11/27 07:53:09;;;;;;;14.50;5.40;;;4.50;99.90;;;;;;6188720;23;20020;-82
2022/11/27 07:55:37;;;;;;;13.80;6.10;;;6.00;99.90;;;;;;6217741;23;20044;-83
2022/11/27 07:58:06;;;;;;;13.90;5.90;;;3.80;99.90;;;;;;6189195;23;20023;-82
2022/11/27 08:00:50;;;;;;;14.30;5.63;;;3.80;99.90;;;;;;6188836;23;20038;-82
2022/11/27 08:03:15;;;;;;;13.88;5.50;;;5.00;99.90;;;;;;6216570;23;20024;-82
2022/11/27 08:05:55;;;;;;;12.37;5.10;;;4.10;99.90;;;;;;6189940;23;20013;-81
2022/11/27 08:08:22;;;;;;;13.30;5.70;;;5.20;99.90;;;;;;6216800;23;20040;-81
2022/11/27 08:11:03;;;;;;;16.37;6.03;;;3.80;99.90;;;;;;6216074;23;20092;-83
2022/11/27 08:13:55;;;;;;;16.07;5.80;;;4.30;99.90;;;;;;6189260;23;20024;-85
2022/11/27 08:16:20;;;;;;;14.93;6.17;;;3.10;99.90;;;;;;6190072;23;20012;-84
2022/11/27 08:18:55;;;;;;;16.10;6.00;;;4.30;99.90;;;;;;6191162;23;20096;-83
2022/11/27 08:21:20;;;;;;;15.03;5.60;;;4.10;99.90;;;;;;6188957;23;20020;-82
2022/11/27 08:24:02;;;;;;;16.13;5.70;;;4.20;99.90;;;;;;6187696;23;20448;-83
2022/11/27 08:26:27;;;;;;;16.53;6.00;;;4.30;99.90;;;;;;6188730;23;20024;-82
2022/11/27 08:29:05;;;;;;;17.37;6.20;;;4.10;99.90;;;;;;6216030;23;20015;-83
2022/11/27 08:31:32;;;;;;;15.57;5.67;;;4.20;99.90;;;;;;6189770;23;20017;-82
2022/11/27 08:34:00;;;;;;;14.07;5.87;;;4.10;99.90;;;;;;6189708;23;20024;-83
2022/11/27 08:36:35;;;;;;;20.43;6.20;;;4.40;99.90;;;;;;6215276;23;20341;-82
2022/11/27 08:39:01;;;;;;;15.33;5.87;;;4.10;99.90;;;;;;6189692;23;20040;-83
2022/11/27 08:41:36;;;;;;;17.40;5.67;;;4.20;99.90;;;;;;6216623;23;20453;-83
2022/11/27 08:44:22;;;;;;;16.17;5.77;;;4.40;99.90;;;;;;6216710;23;20008;-82
2022/11/27 08:46:48;;;;;;;13.40;5.67;;;4.30;99.90;;;;;;6189120;23;20021;-82
2022/11/27 08:49:32;;;;;;;13.90;5.43;;;4.50;99.90;;;;;;6188871;23;20012;-82
2022/11/27 08:51:58;;;;;;;14.43;5.90;;;4.60;99.90;;;;;;6216816;23;20019;-82
2022/11/27 08:54:42;;;;;;;14.23;5.43;;;4.40;99.90;;;;;;6216436;23;20048;-82
2022/11/27 08:57:13;;;;;;;14.07;5.67;;;4.30;99.90;;;;;;6186694;23;20410;-83
2022/11/27 08:59:38;;;;;;;13.70;5.67;;;4.70;99.90;;;;;;6214927;23;20028;-83
2022/11/27 09:02:04;;;;;;;14.57;5.87;;;4.70;99.90;;;;;;6190512;23;20017;-83
2022/11/27 09:04:32;;;;;;;14.17;5.57;;;5.40;99.90;;;;;;6193715;23;20024;-83
2022/11/27 09:07:18;;;;;;;15.10;5.27;;;5.30;99.90;;;;;;6189470;23;20055;-83
2022/11/27 09:09:44;;;;;;;15.38;5.63;;;4.80;99.90;;;;;;6215498;23;20017;-83
2022/11/27 09:12:24;;;;;;;12.70;5.40;;;4.30;99.90;;;;;;6194840;23;20020;-83
2022/11/27 09:15:05;;;;;;;14.27;5.40;;;4.60;99.90;;;;;;6190264;23;20343;-83
2022/11/27 09:17:31;;;;;;;13.57;5.67;;;4.80;99.90;;;;;;6188563;23;20016;-83
2022/11/27 09:20:07;;;;;;;13.60;5.20;;;4.70;99.90;;;;;;6189541;23;20043;-82
2022/11/27 09:22:44;;;;;;;19.77;6.30;;;4.80;99.90;;;;;;6189748;23;20349;-82
2022/11/27 09:25:22;;;;;;;19.00;5.50;;;5.80;99.90;;;;;;6189126;23;20456;-83
2022/11/27 09:28:06;;;;;;;14.63;5.93;;;4.50;99.90;;;;;;6215527;23;20063;-84
2022/11/27 09:30:57;;;;;;;13.90;5.82;;;5.50;99.90;;;;;;6188612;23;20017;-83
2022/11/27 09:33:37;;;;;;;16.63;6.30;;;4.80;99.90;;;;;;6217182;23;20031;-84
2022/11/27 09:36:24;;;;;;;13.80;6.10;;;4.50;99.90;;;;;;6189335;23;20616;-84
2022/11/27 09:39:08;;;;;;;15.53;6.07;;;4.50;99.90;;;;;;6214436;23;20027;-84
2022/11/27 09:41:50;;;;;;;;;;;5.60;99.90;;;;;;6216905;23;20111;-84
2022/11/27 09:44:58;;;;;;;16.57;5.97;;;4.90;99.90;;;;;;6188255;23;19912;-83
2022/11/27 09:48:29;;;;;;;13.13;5.68;;;4.20;99.90;;;;;;6214874;23;20024;-83
2022/11/27 09:50:58;;;;;;;16.23;6.40;;;5.00;99.90;;;;;;6097308;23;20022;-83
2022/11/27 09:53:57;;;;;;;14.90;6.27;;;4.40;99.90;;;;;;6097059;23;20117;-83
2022/11/27 10:04:21;;;;;;;14.30;6.03;;;5.00;99.90;;;;;;6191048;23;20108;-85
2022/11/27 10:07:03;;;;;;;15.33;6.47;;;4.60;99.90;;;;;;6188568;23;20091;-84
2022/11/27 10:10:04;;;;;;;16.67;6.20;;;4.40;99.90;;;;;;6188427;23;20445;-84
2022/11/27 10:12:58;;;;;;;14.03;6.20;;;4.40;99.90;;;;;;6097992;23;20026;-84
2022/11/27 10:16:07;;;;;;;13.63;5.90;;;4.10;99.90;;;;;;6098820;23;20077;-84
2022/11/27 10:19:03;;;;;;;19.10;6.97;;;4.60;99.90;;;;;;6123638;23;20014;-84
2022/11/27 10:22:44;;;;;;;16.90;7.07;;;5.00;99.90;;;;;;6096780;23;20040;-81
2022/11/27 10:25:19;;;;;;;14.23;6.90;;;4.90;99.90;;;;;;6122624;23;20339;-82
2022/11/27 10:28:09;;;;;;;18.33;7.20;;;4.70;99.90;;;;;;6209494;23;20019;-83
2022/11/27 10:30:46;;;;;;;15.90;7.10;;;4.60;99.90;;;;;;6187434;23;20026;-82
2022/11/27 10:33:25;;;;;;;17.60;7.23;;;4.70;99.90;;;;;;6188611;23;20023;-82
2022/11/27 10:35:51;;;;;;;16.37;7.00;;;4.70;99.90;;;;;;6213671;23;20013;-83
2022/11/27 10:38:21;;;;;;;16.23;6.77;;;4.70;99.90;;;;;;6188092;23;20028;-83
2022/11/27 10:40:49;;;;;;;15.90;7.67;;;4.60;99.90;;;;;;6192450;23;20348;-83
2022/11/27 10:43:19;;;;;;;18.83;7.13;;;4.70;99.90;;;;;;6214696;23;20016;-83
2022/11/27 10:46:04;;;;;;;19.43;6.97;;;4.80;99.90;;;;;;6187264;23;20020;-83
2022/11/27 10:48:31;;;;;;;16.00;6.73;;;4.70;99.90;;;;;;6218995;23;20336;-81
2022/11/27 10:51:17;;;;;;;16.13;6.90;;;4.20;99.90;;;;;;6214830;23;20445;-81
2022/11/27 10:54:04;;;;;;;17.30;6.40;;;5.00;99.90;;;;;;6187259;23;20099;-81
2022/11/27 11:00:18;;;;;;;16.93;7.47;;;5.30;99.90;;;;;;6213569;23;20090;-83
2022/11/27 11:02:45;;;;;;;18.47;7.80;;;4.90;99.90;;;;;;6186855;23;20349;-83
2022/11/27 11:05:30;;;;;;;16.63;7.10;;;5.10;99.90;;;;;;6214428;23;20020;-83
2022/11/27 11:08:05;;;;;;;17.17;7.27;;;4.60;99.90;;;;;;6214611;23;20040;-83
2022/11/27 11:10:44;;;;;;;21.13;8.37;;;4.90;99.90;;;;;;6186360;23;20044;-83
2022/11/27 11:13:41;;;;;;;18.37;7.17;;;4.90;99.90;;;;;;6187229;23;20017;-83
2022/11/27 11:16:16;;;;;;;19.80;7.27;;;4.90;99.90;;;;;;6187245;23;20071;-83
2022/11/27 11:19:01;;;;;;;16.43;7.30;;;5.00;99.90;;;;;;6186975;23;20523;-83
2022/11/27 11:21:47;;;;;;;15.90;6.97;;;4.70;99.90;;;;;;6188134;23;20461;-83
2022/11/27 11:24:43;;;;;;;16.90;7.23;;;5.20;99.90;;;;;;6186794;23;20017;-83
2022/11/27 11:27:25;;;;;;;17.17;7.07;;;4.70;99.90;;;;;;6150952;23;20029;-83
2022/11/27 11:30:18;;;;;;;16.80;7.67;;;4.80;99.90;;;;;;6187443;23;20016;-84
2022/11/27 11:32:57;;;;;;;18.70;7.70;;;5.30;99.90;;;;;;6187484;23;20056;-83
2022/11/27 11:35:34;;;;;;;18.67;7.87;;;4.80;99.90;;;;;;6182582;23;20017;-83
2022/11/27 11:38:17;;;;;;;20.17;7.97;;;6.30;99.90;;;;;;6182244;23;20021;-83
2022/11/27 11:40:57;;;;;;;15.85;7.20;;;4.90;99.90;;;;;;6182535;23;20021;-84
2022/11/27 11:43:28;;;;;;;18.00;7.50;;;5.10;99.90;;;;;;6183803;23;20096;-83
2022/11/27 11:46:19;;;;;;;15.73;7.53;;;5.20;99.90;;;;;;6183284;23;20468;-83
2022/11/27 11:49:15;;;;;;;17.03;7.40;;;5.20;99.90;;;;;;6184518;23;20013;-84
2022/11/27 11:51:59;;;;;;;17.10;7.30;;;5.30;99.90;;;;;;6184249;23;20024;-82
2022/11/27 11:55:06;;;;;;;16.80;7.68;;;5.30;99.90;;;;;;6183349;23;20017;-83
2022/11/27 11:58:02;;;;;;;17.40;7.90;;;5.30;99.90;;;;;;6187081;23;20028;-84
2022/11/27 12:00:46;;;;;;;18.93;8.03;;;5.40;99.90;;;;;;6213781;23;20016;-85
2022/11/27 12:03:32;;;;;;;19.45;8.70;;;5.30;99.90;;;;;;6191749;23;20024;-84
2022/11/27 12:06:16;;;;;;;20.63;7.90;;;5.30;99.90;;;;;;6190422;23;20013;-83
2022/11/27 12:08:52;;;;;;;18.27;8.13;;;5.40;99.90;;;;;;6189655;23;20016;-84
2022/11/27 12:11:26;;;;;;;15.60;7.80;;;5.30;99.90;;;;;;6191363;23;20017;-84
2022/11/27 12:14:30;;;;;;;17.25;7.75;;;5.40;99.90;;;;;;6195680;23;20013;-84
2022/11/27 12:17:24;;;;;;;17.52;7.88;;;5.40;99.90;;;;;;6173971;23;20082;-84
2022/11/27 12:23:54;;;;;;;16.00;8.10;;;5.80;99.90;;;;;;6191499;23;20079;-84
2022/11/27 12:26:50;;;;;;;20.03;7.40;;;6.00;99.90;;;;;;6191122;23;20025;-83
2022/11/27 12:29:44;;;;;;;19.13;7.97;;;5.80;99.90;;;;;;6190707;23;20095;-84
2022/11/27 12:32:56;;;;;;;18.23;8.23;;;5.40;99.90;;;;;;6217644;23;20016;-84
2022/11/27 12:38:43;;;;;;;18.33;8.13;;;5.30;99.90;;;;;;6191142;23;20021;-84
2022/11/27 12:41:45;;;;;;;17.57;7.70;;;5.50;99.90;;;;;;6189597;23;20025;-84
2022/11/27 12:44:29;;;;;;;17.70;8.33;;;5.50;99.90;;;;;;6215407;23;20125;-84
2022/11/27 12:47:23;;;;;;;18.52;7.93;;;5.50;99.90;;;;;;6190612;23;20024;-84
2022/11/27 12:49:57;;;;;;;18.52;8.68;;;5.50;99.90;;;;;;6216828;23;20036;-84
2022/11/27 12:52:34;;;;;;;18.00;8.00;;;5.50;99.90;;;;;;6188997;23;20017;-84
2022/11/27 12:55:11;;;;;;;17.53;8.33;;;5.50;99.90;;;;;;6211534;23;20024;-85
2022/11/27 12:57:50;;;;;;;18.57;8.73;;;5.60;99.90;;;;;;6189948;23;20056;-83
2022/11/27 13:00:17;;;;;;;17.50;8.77;;;5.60;99.90;;;;;;6217194;23;20095;-83
2022/11/27 13:02:52;;;;;;;17.37;8.73;;;5.60;99.90;;;;;;6188331;23;20039;-83
2022/11/27 13:05:21;;;;;;;17.70;8.50;;;5.60;99.90;;;;;;6189251;23;20472;-83
2022/11/27 13:08:07;;;;;;;18.13;8.73;;;5.60;99.90;;;;;;6189329;23;20020;-83
2022/11/27 13:10:55;;;;;;;21.70;10.07;;;5.60;99.90;;;;;;6216666;23;20016;-83
2022/11/27 13:14:03;;;;;;;16.77;8.33;;;5.40;99.90;;;;;;6216651;23;20009;-84
2022/11/27 13:16:45;;;;;;;16.83;8.10;;;5.70;99.90;;;;;;6215278;23;20021;-84
2022/11/27 13:19:56;;;;;;;18.70;7.70;;;5.30;99.90;;;;;;6191845;23;20071;-84
2022/11/27 13:22:44;;;;;;;19.67;8.60;;;5.50;99.90;;;;;;6211473;23;20022;-83
2022/11/27 13:25:13;;;;;;;18.53;8.53;;;5.60;99.90;;;;;;6187444;23;20099;-84
2022/11/27 13:27:59;;;;;;;16.73;8.33;;;5.60;99.90;;;;;;6187654;23;20088;-83
2022/11/27 13:30:30;;;;;;;17.77;7.60;;;5.40;99.90;;;;;;6187984;23;20075;-84
2022/11/27 13:33:05;;;;;;;17.80;8.03;;;5.60;99.90;;;;;;6188969;23;20067;-83
2022/11/27 13:35:37;;;;;;;22.07;8.23;;;5.60;99.90;;;;;;6215346;23;20059;-84
2022/11/27 13:38:20;;;;;;;18.83;8.57;;;5.00;99.90;;;;;;6188697;23;20095;-84
2022/11/27 13:40:51;;;;;;;18.17;8.33;;;5.50;99.90;;;;;;6188879;23;20017;-83
2022/11/27 13:43:42;;;;;;;19.13;8.00;;;5.60;99.90;;;;;;6190862;23;20046;-82
2022/11/27 13:46:19;;;;;;;20.30;8.23;;;5.60;99.90;;;;;;6216420;23;20019;-83
2022/11/27 13:48:56;;;;;;;18.30;8.27;;;5.60;99.90;;;;;;6214923;23;20009;-83
2022/11/27 13:51:37;;;;;;;16.23;7.87;;;5.60;99.90;;;;;;6188183;23;20445;-81
2022/11/27 13:54:16;;;;;;;16.83;8.77;;;5.60;99.90;;;;;;6189001;23;20088;-83
2022/11/27 13:57:33;;;;;;;18.63;8.47;;;5.60;99.90;;;;;;6188424;23;20016;-83
2022/11/27 14:00:35;;;;;;;17.73;8.30;;;5.80;99.90;;;;;;6187188;23;20024;-83
2022/11/27 14:03:21;;;;;;;18.53;8.27;;;4.70;99.90;;;;;;6188177;23;20388;-83
2022/11/27 14:06:38;;;;;;;17.40;8.77;;;5.30;99.90;;;;;;6187397;23;20364;-82
2022/11/27 14:09:06;;;;;;;18.43;8.37;;;5.70;99.90;;;;;;6215236;23;20012;-82
2022/11/27 14:11:46;;;;;;;18.37;8.37;;;5.50;99.90;;;;;;6187296;23;20071;-82
2022/11/27 14:14:29;;;;;;;18.23;8.30;;;5.50;99.90;;;;;;6187423;23;20012;-82
2022/11/27 14:16:59;;;;;;;19.27;8.32;;;5.40;99.90;;;;;;6215257;23;20023;-82
2022/11/27 14:19:34;;;;;;;21.47;8.57;;;5.60;99.90;;;;;;6186865;23;20016;-82
2022/11/27 14:22:29;;;;;;;17.07;7.50;;;5.70;99.90;;;;;;6187894;23;20055;-82
2022/11/27 14:24:56;;;;;;;16.07;7.63;;;6.80;99.90;;;;;;6213024;23;20023;-82
2022/11/27 14:27:24;;;;;;;18.43;8.63;;;5.70;99.90;;;;;;6186132;23;20362;-82
2022/11/27 14:29:50;;;;;;;19.40;8.03;;;5.70;99.90;;;;;;6186883;23;20372;-82
2022/11/27 14:32:18;;;;;;;19.87;7.73;;;5.70;99.90;;;;;;6187117;23;20021;-82
2022/11/27 14:34:55;;;;;;;;;;;;;;;;;;;;;
2022/11/27 14:37:30;;;;;;;19.70;7.77;;;5.70;99.90;;;;;;6187419;23;20029;-82
2022/11/27 14:40:21;;;;;;;16.27;8.00;;;6.70;99.90;;;;;;6162369;23;20075;-82
2022/11/27 14:42:47;;;;;;;16.83;8.17;;;5.70;99.90;;;;;;6214170;23;20024;-82
2022/11/27 14:45:15;;;;;;;16.10;8.60;;;5.60;99.90;;;;;;6187456;23;20103;-82
2022/11/27 14:47:47;;;;;;;17.87;8.23;;;5.90;99.90;;;;;;6185656;23;20519;-82